Time;durP1;ratioP1;P1;durP2;ratioP2;P2;SDS_P1;SDS_P2;PMS_P1;PMS_P2;Temp;Humidity;BMP_temperature;BMP_pressure;BME280_temperature;BME280_humidity;BME280_pressure;Samples;Min_cycle;Max_cycle;Signal;HPM_P1;HPM_P2
2023/03/29 00:01:16;;;;;;;18.55;8.32;;;;;;;4.08;81.07;98264.28;5070195;28;20147;-62
2023/03/29 00:03:44;;;;;;;13.48;7.25;;;;;;;4.09;81.55;98261.44;5071383;28;20541;-62
2023/03/29 00:06:14;;;;;;;15.23;7.95;;;;;;;4.09;81.66;98265.88;5056619;28;20118;-62
2023/03/29 00:08:40;;;;;;;14.70;8.18;;;;;;;4.07;81.92;98262.69;5050016;28;20556;-63
2023/03/29 00:11:06;;;;;;;12.77;7.60;;;;;;;4.06;81.32;98254.03;5051426;28;20098;-61
2023/03/29 00:13:32;;;;;;;11.68;6.97;;;;;;;4.07;81.67;98246.94;5051460;28;20044;-62
2023/03/29 00:15:57;;;;;;;11.52;7.35;;;;;;;4.03;81.30;98228.25;5062145;28;20537;-63
2023/03/29 00:18:23;;;;;;;12.88;8.18;;;;;;;4.14;81.39;98246.84;5069752;28;20036;-63
2023/03/29 00:20:56;;;;;;;12.32;7.35;;;;;;;4.16;81.39;98239.56;5069814;28;20148;-63
2023/03/29 00:23:23;;;;;;;14.82;8.20;;;;;;;4.25;80.97;98246.09;5069758;28;20131;-63
2023/03/29 00:25:50;;;;;;;10.25;7.57;;;;;;;4.32;81.02;98242.34;5071008;28;20525;-61
2023/03/29 00:28:15;;;;;;;10.48;6.80;;;;;;;4.40;79.95;98245.66;5068446;28;20628;-62
2023/03/29 00:30:41;;;;;;;8.85;6.25;;;;;;;4.41;79.83;98240.22;5069433;28;20033;-62
2023/03/29 00:33:07;;;;;;;10.65;6.53;;;;;;;4.41;80.36;98234.97;5070902;28;20516;-63
2023/03/29 00:35:33;;;;;;;9.55;5.85;;;;;;;4.45;80.52;98233.47;5070813;28;20040;-62
2023/03/29 00:37:58;;;;;;;12.02;8.70;;;;;;;4.51;79.61;98239.66;5069426;28;20091;-62
2023/03/29 00:40:24;;;;;;;13.10;9.50;;;;;;;4.52;79.15;98230.72;5069481;28;20132;-63
2023/03/29 00:42:50;;;;;;;16.77;9.32;;;;;;;4.54;79.77;98226.06;5071000;28;20391;-61
2023/03/29 00:45:29;;;;;;;13.85;9.48;;;;;;;4.57;79.42;98222.19;5070789;28;20085;-64
2023/03/29 00:48:01;;;;;;;12.25;7.35;;;;;;;4.60;78.88;98233.03;5069607;28;20059;-62
2023/03/29 00:50:35;;;;;;;12.10;7.07;;;;;;;4.61;78.85;98221.50;5069883;28;20047;-62
2023/03/29 00:53:03;;;;;;;10.25;6.18;;;;;;;4.63;79.32;98222.09;5071243;28;20044;-60
2023/03/29 00:55:37;;;;;;;10.25;5.85;;;;;;;4.64;79.06;98220.25;5069953;28;20048;-63
2023/03/29 00:58:06;;;;;;;10.55;5.93;;;;;;;4.68;78.92;98218.78;5069959;28;20053;-61
2023/03/29 01:00:36;;;;;;;10.25;6.28;;;;;;;4.64;78.32;98197.41;5069796;28;20521;-62
2023/03/29 01:03:07;;;;;;;12.13;6.55;;;;;;;4.62;79.21;98207.38;5053027;28;20047;-61
2023/03/29 01:05:45;;;;;;;11.55;6.97;;;;;;;4.58;78.91;98208.84;5069837;28;20056;-62
2023/03/29 01:08:20;;;;;;;10.43;6.20;;;;;;;4.61;79.03;98221.50;5052902;28;20457;-61
2023/03/29 01:10:57;;;;;;;11.38;5.63;;;;;;;4.60;78.85;98217.28;5053203;28;20048;-62
2023/03/29 01:13:35;;;;;;;9.10;5.57;;;;;;;4.58;78.79;98208.84;5053198;28;20494;-61
2023/03/29 01:16:01;;;;;;;8.75;6.28;;;;;;;4.61;78.37;98203.13;5052784;28;20103;-61
2023/03/29 01:18:30;;;;;;;12.15;6.07;;;;;;;4.57;78.51;98191.50;5056562;28;20052;-62
2023/03/29 01:21:43;;;;;;;9.38;5.55;;;;;;;4.54;78.70;98212.94;5074743;28;20086;-61
2023/03/29 01:24:50;;;;;;;10.02;6.90;;;;;;;4.56;78.93;98205.66;5039344;28;20540;-61
2023/03/29 01:27:53;;;;;;;9.32;5.63;;;;;;;4.49;78.47;98204.94;5012572;28;20618;-63
2023/03/29 01:30:24;;;;;;;7.68;5.60;;;;;;;4.43;79.22;98198.78;4996239;28;20045;-64
2023/03/29 01:32:55;;;;;;;9.88;5.88;;;;;;;4.40;79.56;98201.06;5053659;28;20517;-61
2023/03/29 01:35:45;;;;;;;9.18;5.63;;;;;;;4.38;78.96;98190.78;5056678;28;20048;-62
2023/03/29 01:38:18;;;;;;;8.63;6.15;;;;;;;4.38;79.57;98198.66;5070238;28;20481;-61
2023/03/29 01:40:43;;;;;;;9.90;6.22;;;;;;;4.39;79.60;98176.66;5073387;28;20135;-62
2023/03/29 01:43:37;;;;;;;8.90;5.57;;;;;;;4.42;78.79;98180.66;5073143;28;20071;-61
2023/03/29 01:46:03;;;;;;;11.38;5.40;;;;;;;4.41;78.89;98173.78;5074609;28;20472;-61
2023/03/29 01:48:57;;;;;;;9.70;5.80;;;;;;;4.38;79.14;98172.41;5073984;28;20048;-62
2023/03/29 01:51:35;;;;;;;9.77;5.88;;;;;;;4.40;79.30;98177.44;5056246;28;20513;-61
2023/03/29 01:54:08;;;;;;;11.20;5.80;;;;;;;4.40;79.39;98178.25;5074541;28;20047;-60
2023/03/29 01:56:37;;;;;;;8.15;5.65;;;;;;;4.41;78.90;98179.84;5055804;28;20036;-63
2023/03/29 01:59:08;;;;;;;8.00;5.35;;;;;;;4.41;79.64;98172.00;5039185;28;20040;-61
2023/03/29 02:01:39;;;;;;;9.80;5.85;;;;;;;4.42;79.26;98170.94;5072354;28;20048;-63
2023/03/29 02:04:09;;;;;;;8.77;5.93;;;;;;;4.46;78.85;98158.97;5055812;28;20498;-63
2023/03/29 02:06:36;;;;;;;11.77;5.35;;;;;;;4.50;79.34;98161.94;5072586;28;20044;-63
2023/03/29 02:09:03;;;;;;;9.38;6.63;;;;;;;4.50;79.07;98160.13;5072428;28;20129;-62
2023/03/29 02:11:29;;;;;;;8.02;5.53;;;;;;;4.56;78.68;98161.03;5022298;28;20102;-61
2023/03/29 02:13:56;;;;;;;7.32;5.22;;;;;;;4.60;78.47;98159.53;5074122;28;20036;-63
2023/03/29 02:16:21;;;;;;;7.85;5.47;;;;;;;4.63;78.83;98159.09;5073530;28;20052;-62
2023/03/29 02:18:48;;;;;;;9.07;5.60;;;;;;;4.69;78.73;98144.25;5072714;28;20379;-62
2023/03/29 02:21:31;;;;;;;10.15;5.70;;;;;;;4.71;77.89;98142.22;5055588;28;20044;-62
2023/03/29 02:23:58;;;;;;;7.80;5.72;;;;;;;4.70;78.50;98135.34;5072541;28;20415;-62
2023/03/29 02:26:25;;;;;;;7.75;5.20;;;;;;;4.77;77.50;98134.19;5055507;28;20537;-62
2023/03/29 02:28:52;;;;;;;13.07;6.53;;;;;;;4.77;77.85;98128.94;5055549;28;20139;-62
2023/03/29 02:31:32;;;;;;;10.98;6.20;;;;;;;4.78;78.10;98135.78;5055211;28;20072;-62
2023/03/29 02:34:10;;;;;;;8.10;4.65;;;;;;;4.79;77.50;98136.59;5055846;28;20533;-62
2023/03/29 02:36:42;;;;;;;9.10;5.90;;;;;;;4.81;77.58;98137.16;5055489;28;20044;-62
2023/03/29 02:39:12;;;;;;;9.65;5.57;;;;;;;4.80;77.73;98130.31;5038891;28;20087;-62
2023/03/29 02:41:38;;;;;;;8.75;5.50;;;;;;;4.80;77.44;98125.06;5055220;28;20056;-61
2023/03/29 02:44:06;;;;;;;9.02;5.15;;;;;;;4.82;77.55;98127.44;5055675;28;20040;-62
2023/03/29 02:46:33;;;;;;;9.40;5.60;;;;;;;4.83;77.54;98123.81;5055489;28;20127;-61
2023/03/29 02:48:59;;;;;;;8.77;5.53;;;;;;;4.86;77.55;98116.28;5072033;28;20032;-63
2023/03/29 02:51:30;;;;;;;7.65;5.07;;;;;;;4.86;77.59;98111.00;5071782;28;20054;-63
2023/03/29 02:54:03;;;;;;;9.55;6.03;;;;;;;4.90;77.30;98108.72;5038379;28;20047;-61
2023/03/29 02:56:30;;;;;;;10.38;5.97;;;;;;;4.82;77.20;98094.13;5055197;28;20040;-62
2023/03/29 02:58:56;;;;;;;7.72;4.88;;;;;;;4.89;77.48;98102.69;5055123;28;20456;-62
2023/03/29 03:01:21;;;;;;;7.07;5.10;;;;;;;4.90;77.10;98104.25;5054817;28;20040;-61
2023/03/29 03:03:49;;;;;;;8.45;5.53;;;;;;;4.89;76.73;98100.06;5070906;28;20047;-62
2023/03/29 03:06:15;;;;;;;11.32;5.70;;;;;;;4.90;77.12;98098.22;5072416;28;20044;-62
2023/03/29 03:08:41;;;;;;;7.97;5.53;;;;;;;4.86;77.03;98095.25;5054985;28;20131;-62
2023/03/29 03:11:07;;;;;;;7.68;6.03;;;;;;;4.86;77.10;98086.59;5070963;28;20106;-62
2023/03/29 03:13:33;;;;;;;7.20;5.38;;;;;;;4.90;76.88;98093.75;5073042;28;20409;-62
2023/03/29 03:16:00;;;;;;;8.32;5.55;;;;;;;4.90;76.71;98093.75;5071153;28;20049;-62
2023/03/29 03:18:26;;;;;;;9.18;5.43;;;;;;;4.93;76.72;98101.16;5054439;28;20032;-62
2023/03/29 03:21:00;;;;;;;7.78;5.25;;;;;;;4.96;77.50;98094.66;5071083;28;20050;-62
2023/03/29 03:23:27;;;;;;;7.05;5.28;;;;;;;4.98;77.21;98087.34;5072762;28;20049;-63
2023/03/29 03:25:54;;;;;;;8.75;5.57;;;;;;;5.01;76.68;98086.88;5054879;28;20044;-62
2023/03/29 03:28:20;;;;;;;7.80;5.28;;;;;;;5.05;76.97;98081.97;5071189;28;20040;-63
2023/03/29 03:30:48;;;;;;;7.20;5.00;;;;;;;5.07;76.10;98085.16;5071049;28;20059;-63
2023/03/29 03:33:27;;;;;;;7.73;5.70;;;;;;;5.07;76.68;98069.41;5072391;28;20604;-62
2023/03/29 03:36:09;;;;;;;6.38;4.60;;;;;;;5.09;76.69;98076.03;5071343;28;20049;-62
2023/03/29 03:38:36;;;;;;;8.38;5.50;;;;;;;4.88;76.33;98042.50;5072376;28;20040;-63
2023/03/29 03:41:04;;;;;;;10.07;5.20;;;;;;;5.05;76.88;98082.75;5070239;28;20065;-61
2023/03/29 03:43:32;;;;;;;8.27;5.70;;;;;;;5.06;76.34;98070.41;5054577;28;20044;-63
2023/03/29 03:45:58;;;;;;;9.98;5.80;;;;;;;5.06;75.96;98080.91;5054000;28;20415;-63
2023/03/29 03:48:24;;;;;;;8.02;5.15;;;;;;;5.15;75.75;98079.53;5070649;28;20041;-62
2023/03/29 03:51:09;;;;;;;8.63;5.70;;;;;;;5.22;75.81;98075.72;5070870;28;20048;-62
2023/03/29 03:53:35;;;;;;;10.15;6.18;;;;;;;5.22;76.10;98073.09;5070609;28;20098;-62
2023/03/29 03:56:24;;;;;;;7.10;5.05;;;;;;;5.30;75.50;98063.25;5070418;28;20068;-62
2023/03/29 03:59:10;;;;;;;11.30;5.90;;;;;;;5.35;74.96;98071.22;5070924;28;20048;-62
2023/03/29 04:01:52;;;;;;;6.70;5.03;;;;;;;5.38;75.37;98062.88;5070396;28;20048;-62
2023/03/29 04:04:22;;;;;;;9.93;5.60;;;;;;;5.42;75.56;98069.25;5053670;28;20049;-64
2023/03/29 04:07:11;;;;;;;6.90;5.00;;;;;;;5.40;74.95;98053.72;5056852;28;20055;-63
2023/03/29 04:10:12;;;;;;;6.47;4.97;;;;;;;5.54;74.91;98063.94;5069023;28;20048;-62
2023/03/29 04:12:47;;;;;;;9.60;6.25;;;;;;;5.55;74.42;98073.41;5050535;28;20102;-62
2023/03/29 04:15:13;;;;;;;9.77;5.65;;;;;;;5.63;74.48;98065.16;5070070;28;20155;-65
2023/03/29 04:17:46;;;;;;;8.05;5.20;;;;;;;5.51;74.51;98062.59;5070187;28;20544;-63
2023/03/29 04:20:44;;;;;;;8.52;5.40;;;;;;;5.59;74.68;98061.38;5070012;28;20151;-64
2023/03/29 04:23:11;;;;;;;6.88;4.88;;;;;;;5.64;74.28;98058.84;5070057;28;20567;-63
2023/03/29 04:25:41;;;;;;;11.18;5.28;;;;;;;5.70;74.36;98068.41;5054117;28;20106;-62
2023/03/29 04:28:40;;;;;;;8.52;5.25;;;;;;;5.82;73.77;98060.44;5069987;28;20063;-63
2023/03/29 04:31:12;;;;;;;9.48;5.18;;;;;;;5.90;72.98;98062.69;5069809;28;20059;-62
2023/03/29 04:33:55;;;;;;;8.30;4.60;;;;;;;5.99;72.42;98058.66;5070165;28;20448;-62
2023/03/29 04:36:21;;;;;;;8.52;4.45;;;;;;;6.01;72.27;98048.69;5069934;28;20078;-62
2023/03/29 04:38:47;;;;;;;8.65;5.30;;;;;;;6.10;72.43;98052.50;5053386;28;20097;-62
2023/03/29 04:41:14;;;;;;;7.25;5.10;;;;;;;6.12;72.41;98047.03;5053209;28;20075;-63
2023/03/29 04:43:46;;;;;;;9.38;5.18;;;;;;;6.15;71.64;98043.91;5071283;28;20044;-61
2023/03/29 04:46:25;;;;;;;9.15;5.80;;;;;;;6.22;71.14;98049.78;5040374;28;20044;-63
2023/03/29 04:49:10;;;;;;;7.53;5.18;;;;;;;6.29;71.54;98033.81;5071460;28;20374;-62
2023/03/29 04:51:46;;;;;;;14.32;6.07;;;;;;;6.35;70.76;98036.31;5069295;28;20501;-64
2023/03/29 04:54:14;;;;;;;8.45;5.43;;;;;;;6.38;71.31;98042.88;5073178;28;20045;-64
2023/03/29 04:57:00;;;;;;;10.75;5.30;;;;;;;6.40;71.00;98043.44;5069121;28;20088;-63
2023/03/29 04:59:43;;;;;;;7.72;5.07;;;;;;;6.40;70.46;98042.66;5073643;28;20048;-64
2023/03/29 05:02:31;;;;;;;7.30;4.93;;;;;;;6.41;70.77;98050.28;5072706;28;20094;-63
2023/03/29 05:04:57;;;;;;;8.07;5.20;;;;;;;6.43;70.50;98052.69;5073557;28;20044;-63
2023/03/29 05:07:23;;;;;;;7.18;4.30;;;;;;;6.41;70.58;98047.66;5073403;28;20517;-63
2023/03/29 05:09:49;;;;;;;8.82;5.20;;;;;;;6.41;70.06;98049.50;5073238;28;20040;-63
2023/03/29 05:12:15;;;;;;;6.57;5.10;;;;;;;6.49;69.82;98051.72;5073451;28;20044;-62
2023/03/29 05:14:58;;;;;;;6.80;4.82;;;;;;;6.58;69.93;98048.41;5073490;28;20064;-63
2023/03/29 05:17:26;;;;;;;8.98;5.68;;;;;;;6.63;69.59;98042.44;5056889;28;20040;-62
2023/03/29 05:19:53;;;;;;;7.80;4.40;;;;;;;6.71;68.84;98039.38;5073359;28;20045;-62
2023/03/29 05:22:22;;;;;;;8.45;5.40;;;;;;;6.83;68.85;98037.41;5073002;28;20438;-62
2023/03/29 05:24:50;;;;;;;8.23;5.32;;;;;;;6.87;68.78;98037.72;5056445;28;20049;-63
2023/03/29 05:27:21;;;;;;;9.38;5.78;;;;;;;6.96;68.89;98043.34;5056794;28;20050;-64
2023/03/29 05:30:00;;;;;;;7.38;4.63;;;;;;;6.94;68.22;98038.34;5056360;28;20079;-64
2023/03/29 05:32:38;;;;;;;11.07;4.78;;;;;;;6.96;68.24;98044.13;5034622;28;20037;-64
2023/03/29 05:35:06;;;;;;;7.95;4.80;;;;;;;7.03;68.42;98041.34;5050838;28;20407;-63
2023/03/29 05:37:33;;;;;;;6.43;4.47;;;;;;;7.04;68.24;98045.56;5034812;28;20576;-63
2023/03/29 05:40:05;;;;;;;8.50;4.82;;;;;;;7.04;68.28;98041.06;5054066;28;20057;-64
2023/03/29 05:42:31;;;;;;;7.88;4.55;;;;;;;7.07;68.06;98033.72;5036500;28;20056;-65
2023/03/29 05:45:04;;;;;;;9.73;5.32;;;;;;;7.05;67.83;98037.38;5053033;28;20056;-61
2023/03/29 05:47:30;;;;;;;10.43;5.80;;;;;;;7.21;67.55;98042.84;5052708;28;20040;-62
2023/03/29 05:49:56;;;;;;;7.88;5.25;;;;;;;7.29;67.32;98042.38;5053037;28;20136;-64
2023/03/29 05:52:23;;;;;;;12.57;5.15;;;;;;;7.36;66.88;98042.19;5036153;28;20045;-63
2023/03/29 05:54:50;;;;;;;8.10;5.18;;;;;;;7.36;66.86;98045.63;5052823;28;20080;-63
2023/03/29 05:57:15;;;;;;;8.23;5.00;;;;;;;7.38;66.85;98040.91;5052722;28;20072;-64
2023/03/29 05:59:41;;;;;;;8.95;5.05;;;;;;;7.46;66.41;98053.59;5034637;28;20044;-66
2023/03/29 06:02:10;;;;;;;11.45;4.90;;;;;;;7.60;66.02;98053.22;5050766;28;20049;-64
2023/03/29 06:04:42;;;;;;;8.68;5.15;;;;;;;7.76;65.61;98044.38;5036198;28;20409;-65
2023/03/29 06:07:34;;;;;;;7.72;5.25;;;;;;;7.91;65.03;98048.97;5042689;28;20143;-64
2023/03/29 06:10:14;;;;;;;7.28;4.93;;;;;;;8.02;64.20;98040.09;5051501;28;20106;-65
2023/03/29 06:12:45;;;;;;;12.52;5.35;;;;;;;8.05;64.01;98039.56;5049499;28;20037;-64
2023/03/29 06:15:13;;;;;;;8.15;5.05;;;;;;;7.95;64.00;98016.56;5033430;28;20118;-62
2023/03/29 06:17:50;;;;;;;11.48;4.70;;;;;;;8.07;63.92;98036.69;5034437;28;20049;-62
2023/03/29 06:20:17;;;;;;;7.43;5.20;;;;;;;8.14;63.66;98032.78;5034146;28;20649;-64
2023/03/29 06:22:47;;;;;;;7.60;4.40;;;;;;;8.17;63.26;98034.91;5017730;28;20076;-65
2023/03/29 06:25:14;;;;;;;6.57;4.55;;;;;;;8.29;63.21;98036.56;5052584;28;20122;-65
2023/03/29 06:27:42;;;;;;;7.88;5.07;;;;;;;8.33;62.84;98029.75;5033490;28;20056;-64
2023/03/29 06:30:10;;;;;;;5.93;4.43;;;;;;;8.41;62.53;98031.91;5050834;28;20049;-63
2023/03/29 06:32:38;;;;;;;7.97;5.43;;;;;;;8.36;62.43;98029.22;5027369;28;20763;-63
2023/03/29 06:35:09;;;;;;;9.57;4.47;;;;;;;8.20;62.60;98010.63;5067572;28;20095;-63
2023/03/29 06:37:48;;;;;;;9.40;4.97;;;;;;;8.32;62.47;98028.91;5050654;28;20124;-64
2023/03/29 06:40:26;;;;;;;8.77;5.60;;;;;;;8.32;62.63;98025.50;5066605;28;20060;-63
2023/03/29 06:42:56;;;;;;;10.73;6.28;;;;;;;8.28;63.13;98030.50;5050035;28;20033;-64
2023/03/29 06:45:41;;;;;;;11.40;5.82;;;;;;;8.30;63.46;98025.75;5051226;28;20056;-62
2023/03/29 06:48:17;;;;;;;9.45;5.75;;;;;;;8.30;63.02;98017.84;5060158;28;20518;-67
2023/03/29 06:50:43;;;;;;;9.88;4.93;;;;;;;8.27;63.18;98028.91;5049261;28;20045;-63
2023/03/29 06:53:12;;;;;;;9.43;5.55;;;;;;;8.29;63.15;98026.00;5033928;28;20051;-64
2023/03/29 06:55:40;;;;;;;10.43;4.90;;;;;;;8.35;63.25;98019.69;5016731;28;20056;-63
2023/03/29 06:58:34;;;;;;;10.68;4.60;;;;;;;8.32;63.02;98026.28;5037810;28;20040;-64
2023/03/29 07:01:08;;;;;;;8.30;4.55;;;;;;;8.31;63.29;98035.25;5049198;28;20060;-66
2023/03/29 07:03:47;;;;;;;8.73;4.40;;;;;;;8.32;63.63;98030.78;5049871;28;20048;-63
2023/03/29 07:06:19;;;;;;;5.78;4.30;;;;;;;8.16;63.94;98027.25;5050897;28;20052;-64
2023/03/29 07:08:49;;;;;;;7.60;4.65;;;;;;;8.07;65.02;98021.66;5034172;28;20521;-65
2023/03/29 07:11:30;;;;;;;8.18;5.00;;;;;;;8.07;65.69;98023.50;5050075;28;20186;-63
2023/03/29 07:14:00;;;;;;;9.25;4.97;;;;;;;8.05;66.64;98025.59;5034320;28;20041;-65
2023/03/29 07:16:26;;;;;;;12.85;6.03;;;;;;;8.03;66.89;98027.69;5031852;28;20063;-65
2023/03/29 07:19:16;;;;;;;7.10;4.55;;;;;;;8.02;66.80;98026.91;5051063;28;20056;-66
2023/03/29 07:21:54;;;;;;;6.25;4.20;;;;;;;8.02;66.97;98020.81;5049510;28;20426;-65
2023/03/29 07:24:24;;;;;;;6.57;4.75;;;;;;;8.01;67.00;98019.25;5032347;28;20048;-65
2023/03/29 07:26:51;;;;;;;8.70;5.22;;;;;;;7.99;66.99;98021.34;5032839;28;20052;-64
2023/03/29 07:29:16;;;;;;;6.30;4.72;;;;;;;7.99;67.46;98023.97;5051017;28;20079;-63
2023/03/29 07:31:43;;;;;;;7.50;4.15;;;;;;;7.96;67.54;98031.34;5055611;28;20082;-64
2023/03/29 07:34:28;;;;;;;8.05;4.85;;;;;;;7.86;68.39;98035.75;5069947;28;20040;-64
2023/03/29 07:36:56;;;;;;;7.03;4.68;;;;;;;7.80;68.60;98031.50;5069275;28;20053;-64
2023/03/29 07:39:22;;;;;;;7.82;4.93;;;;;;;7.77;69.42;98029.38;5036232;28;20037;-64
2023/03/29 07:42:08;;;;;;;6.55;4.20;;;;;;;7.74;69.86;98030.66;5067814;28;20044;-63
2023/03/29 07:44:34;;;;;;;6.50;4.55;;;;;;;7.73;70.41;98037.78;5036602;28;20040;-63
2023/03/29 07:47:01;;;;;;;8.20;5.13;;;;;;;7.84;70.45;98036.00;5036029;28;20040;-64
2023/03/29 07:49:27;;;;;;;5.65;4.50;;;;;;;7.94;69.65;98049.28;5071137;28;20391;-64
2023/03/29 07:51:53;;;;;;;7.30;4.82;;;;;;;7.98;69.38;98039.00;5035158;28;20135;-66
2023/03/29 07:54:19;;;;;;;6.60;4.93;;;;;;;7.89;71.59;98033.41;5050891;28;20044;-65
2023/03/29 07:56:59;;;;;;;13.20;5.45;;;;;;;7.86;72.03;98030.47;5068877;28;20555;-67
2023/03/29 07:59:38;;;;;;;7.30;5.15;;;;;;;7.91;73.72;98028.69;5069374;28;20048;-65
2023/03/29 08:02:11;;;;;;;5.38;4.40;;;;;;;8.01;71.80;98041.16;5053462;28;20421;-67
2023/03/29 08:04:40;;;;;;;7.25;5.00;;;;;;;8.08;71.36;98025.09;5053628;28;20390;-63
2023/03/29 08:07:13;;;;;;;9.95;5.40;;;;;;;8.20;71.66;98037.03;5070078;28;20056;-62
2023/03/29 08:09:59;;;;;;;8.95;5.72;;;;;;;8.38;71.37;98035.88;5054897;28;20057;-64
2023/03/29 08:12:44;;;;;;;7.90;5.65;;;;;;;8.44;69.10;98041.16;5069723;28;20048;-63
2023/03/29 08:15:13;;;;;;;7.30;5.20;;;;;;;8.38;68.48;98037.66;5069489;28;20097;-65
2023/03/29 08:17:40;;;;;;;6.78;5.10;;;;;;;8.26;68.94;98031.78;5052133;28;20360;-64
2023/03/29 08:20:08;;;;;;;15.48;4.53;;;;;;;8.23;67.46;98040.22;5069756;28;20059;-63
2023/03/29 08:22:36;;;;;;;6.22;4.93;;;;;;;8.23;68.58;98041.00;5066769;28;20101;-65
2023/03/29 08:25:14;;;;;;;8.00;5.10;;;;;;;8.31;68.98;98037.91;5065549;28;20161;-65
2023/03/29 08:27:44;;;;;;;;;;;;;;;8.28;68.25;98048.97;5068851;28;20573;-64
2023/03/29 08:30:13;;;;;;;7.40;4.65;;;;;;;8.32;68.62;98042.13;5050981;28;20409;-66
2023/03/29 08:32:40;;;;;;;9.00;4.75;;;;;;;8.26;67.82;98037.06;5052686;28;20409;-64
2023/03/29 08:35:08;;;;;;;7.72;4.95;;;;;;;8.24;68.53;98049.75;5068188;28;20040;-64
2023/03/29 08:37:39;;;;;;;6.78;5.07;;;;;;;8.30;69.25;98044.25;5051664;28;20052;-65
2023/03/29 08:40:05;;;;;;;10.73;4.50;;;;;;;8.28;68.97;98034.97;5069662;28;20044;-65
2023/03/29 08:43:15;;;;;;;6.90;5.20;;;;;;;8.37;68.42;98025.53;5068217;28;20048;-65
2023/03/29 08:46:34;;;;;;;7.97;5.15;;;;;;;8.58;67.91;98029.88;5055266;28;20151;-62
2023/03/29 08:49:08;;;;;;;7.78;5.15;;;;;;;8.72;67.46;98024.13;5068927;28;20040;-63
2023/03/29 08:51:40;;;;;;;6.85;4.55;;;;;;;8.87;66.52;98029.47;5066949;28;20045;-64
2023/03/29 08:54:14;;;;;;;6.10;4.40;;;;;;;8.97;66.92;98026.06;5050815;28;20040;-63
2023/03/29 08:57:06;;;;;;;5.28;4.68;;;;;;;9.07;66.33;98034.03;5052023;28;20413;-63
2023/03/29 08:59:36;;;;;;;7.15;5.55;;;;;;;9.14;67.40;98029.28;5065318;28;20086;-63
2023/03/29 09:02:14;;;;;;;12.82;5.13;;;;;;;9.20;66.64;98030.09;5048161;28;20147;-65
2023/03/29 09:04:41;;;;;;;6.43;4.35;;;;;;;9.03;66.33;98019.72;5064244;28;20044;-65
2023/03/29 09:07:26;;;;;;;8.25;4.70;;;;;;;9.04;68.08;98016.84;5051708;28;20594;-64
2023/03/29 09:09:54;;;;;;;6.35;5.07;;;;;;;8.90;67.73;98017.59;5051806;28;20055;-64
2023/03/29 09:12:43;;;;;;;6.88;4.43;;;;;;;8.84;68.96;98014.13;5068348;28;20052;-64
2023/03/29 09:15:23;;;;;;;6.20;4.75;;;;;;;8.80;69.47;98007.78;5067604;28;20060;-64
2023/03/29 09:18:37;;;;;;;8.93;5.43;;;;;;;8.75;69.97;98013.06;5053411;28;20044;-63
2023/03/29 09:21:10;;;;;;;7.53;5.47;;;;;;;8.70;71.25;98011.16;5050998;28;20443;-65
2023/03/29 09:23:51;;;;;;;7.35;4.90;;;;;;;8.74;73.04;98003.53;5063849;28;20558;-65
2023/03/29 09:26:38;;;;;;;7.88;5.18;;;;;;;8.69;72.46;98012.22;5066987;28;20131;-65
2023/03/29 09:29:34;;;;;;;9.80;5.43;;;;;;;8.68;72.73;98015.13;5068580;28;20056;-65
2023/03/29 09:32:02;;;;;;;7.18;4.47;;;;;;;8.64;72.06;97999.78;5065900;28;20098;-62
2023/03/29 09:34:50;;;;;;;10.48;5.38;;;;;;;8.70;72.39;97997.97;5050116;28;20413;-65
2023/03/29 09:37:27;;;;;;;8.75;5.55;;;;;;;8.77;73.12;98000.38;5066016;28;20087;-65
2023/03/29 09:39:55;;;;;;;11.88;5.70;;;;;;;8.73;73.00;97988.72;5070682;28;20076;-64
2023/03/29 09:42:26;;;;;;;11.35;6.45;;;;;;;8.80;73.00;98013.88;5056599;28;20059;-65
2023/03/29 09:45:07;;;;;;;13.13;6.97;;;;;;;8.68;73.20;98004.56;5055940;28;20106;-65
2023/03/29 09:47:48;;;;;;;11.52;5.32;;;;;;;8.57;73.73;98003.75;5054974;28;20053;-66
2023/03/29 09:50:15;;;;;;;14.23;6.03;;;;;;;8.51;74.19;98007.41;5071975;28;20040;-65
2023/03/29 09:52:41;;;;;;;8.50;5.70;;;;;;;8.49;75.43;98010.28;5073821;28;20059;-64
2023/03/29 09:55:24;;;;;;;6.72;5.65;;;;;;;8.45;75.23;98006.59;5073630;28;20421;-66
2023/03/29 09:58:13;;;;;;;10.55;6.78;;;;;;;8.38;75.86;98001.56;5070468;28;20047;-65
2023/03/29 10:00:43;;;;;;;11.00;6.93;;;;;;;8.36;76.28;98011.53;5071634;28;20052;-65
2023/03/29 10:03:23;;;;;;;10.80;6.70;;;;;;;8.40;76.98;97998.63;5072072;28;20090;-65
2023/03/29 10:06:01;;;;;;;7.20;5.15;;;;;;;8.36;76.89;98008.88;5071702;28;20136;-63
2023/03/29 10:08:30;;;;;;;10.40;7.22;;;;;;;8.35;77.00;98009.13;5054578;28;20127;-64
2023/03/29 10:10:59;;;;;;;8.82;5.97;;;;;;;8.35;77.03;98004.66;5054968;28;20098;-64
2023/03/29 10:13:36;;;;;;;8.85;6.03;;;;;;;8.31;76.60;98008.06;5055003;28;20464;-62
2023/03/29 10:16:07;;;;;;;9.20;5.90;;;;;;;8.29;77.80;98010.16;5070035;28;20361;-63
2023/03/29 10:18:41;;;;;;;8.80;6.07;;;;;;;8.29;76.97;97999.59;5071479;28;20409;-64
2023/03/29 10:21:10;;;;;;;10.88;5.88;;;;;;;8.22;77.30;97994.56;5060442;28;20059;-64
2023/03/29 10:23:37;;;;;;;7.43;5.30;;;;;;;8.24;77.97;98010.94;5050557;28;20037;-65
2023/03/29 10:26:22;;;;;;;9.75;5.97;;;;;;;8.26;78.49;98006.19;5059550;28;20283;-63
2023/03/29 10:28:50;;;;;;;8.07;5.20;;;;;;;8.25;79.21;97991.41;5051879;28;20036;-65
2023/03/29 10:31:21;;;;;;;7.55;5.05;;;;;;;8.16;79.14;97992.94;5066347;28;20048;-66
2023/03/29 10:33:54;;;;;;;;;;;;;;;8.13;79.91;98002.16;5071466;28;20048;-67
2023/03/29 10:36:22;;;;;;;6.82;4.95;;;;;;;8.02;79.73;98002.34;5035499;28;19928;-65
2023/03/29 10:38:50;;;;;;;8.55;5.35;;;;;;;7.94;79.94;98003.59;5069650;28;20063;-64
2023/03/29 10:41:16;;;;;;;8.25;4.90;;;;;;;7.93;79.26;97987.00;5066042;28;20044;-66
2023/03/29 10:43:44;;;;;;;7.50;4.72;;;;;;;7.99;80.02;97989.66;5053397;28;20041;-67
2023/03/29 10:46:26;;;;;;;9.82;5.57;;;;;;;8.00;80.48;97991.25;5071164;28;20076;-66
2023/03/29 10:49:04;;;;;;;7.43;5.53;;;;;;;7.97;80.65;97988.09;5069021;28;20051;-63
2023/03/29 10:51:33;;;;;;;6.85;5.00;;;;;;;7.99;80.51;97987.81;5070364;28;20047;-62
2023/03/29 10:53:59;;;;;;;6.88;4.85;;;;;;;7.93;79.57;97983.56;5069833;28;20040;-64
2023/03/29 10:56:38;;;;;;;6.97;5.30;;;;;;;7.84;80.16;97985.88;5068435;28;20438;-64
2023/03/29 10:59:22;;;;;;;8.68;5.82;;;;;;;7.87;80.95;97974.81;5070492;28;20063;-62
2023/03/29 11:02:12;;;;;;;7.93;5.63;;;;;;;7.91;81.25;97981.19;5054366;28;20078;-62
2023/03/29 11:04:41;;;;;;;9.52;6.05;;;;;;;7.96;81.00;97962.72;5070121;28;20528;-63
2023/03/29 11:07:38;;;;;;;6.73;4.90;;;;;;;8.02;81.09;97970.69;5071045;28;20106;-63
2023/03/29 11:10:24;;;;;;;10.75;6.07;;;;;;;8.06;81.44;97984.94;5053238;28;20051;-64
2023/03/29 11:12:56;;;;;;;7.13;5.40;;;;;;;8.04;80.55;97973.88;5069058;28;20041;-63
2023/03/29 11:15:41;;;;;;;8.80;5.10;;;;;;;7.99;81.01;97969.34;5070481;28;20109;-62
2023/03/29 11:18:35;;;;;;;8.68;5.72;;;;;;;8.02;80.94;97979.41;5070916;28;20052;-63
2023/03/29 11:21:16;;;;;;;9.02;5.95;;;;;;;8.01;81.59;97988.38;5069889;28;20061;-64
2023/03/29 11:23:52;;;;;;;8.45;5.93;;;;;;;7.95;81.71;97984.09;5069294;28;20044;-65
2023/03/29 11:26:26;;;;;;;8.75;6.63;;;;;;;7.94;82.10;97982.50;5069951;28;20136;-65
2023/03/29 11:28:56;;;;;;;12.52;5.95;;;;;;;7.85;81.01;97984.03;5068594;28;20050;-65
2023/03/29 11:31:41;;;;;;;12.63;5.20;;;;;;;7.79;81.43;97980.56;5054245;28;20052;-65
2023/03/29 11:34:30;;;;;;;9.48;5.85;;;;;;;7.73;82.10;97971.03;5072149;28;20063;-66
2023/03/29 11:37:06;;;;;;;7.50;5.93;;;;;;;7.70;82.34;97968.88;5070462;28;20424;-65
2023/03/29 11:40:28;;;;;;;7.85;6.18;;;;;;;7.68;82.92;97971.00;5070892;28;20072;-66
2023/03/29 11:42:55;;;;;;;9.07;6.78;;;;;;;7.73;83.69;97969.19;5037808;28;20421;-67
2023/03/29 11:45:49;;;;;;;8.30;5.78;;;;;;;7.71;82.61;97963.38;5070002;28;20047;-67
2023/03/29 11:48:20;;;;;;;11.50;6.28;;;;;;;7.70;83.16;97982.06;5067280;28;20044;-65
2023/03/29 11:50:54;;;;;;;8.35;5.70;;;;;;;7.62;82.98;97958.84;5070238;28;20497;-66
2023/03/29 11:53:24;;;;;;;9.60;6.25;;;;;;;7.65;83.66;97969.66;5053586;28;20043;-67
2023/03/29 11:55:51;;;;;;;9.02;6.38;;;;;;;7.56;83.13;97960.63;5053952;28;20044;-66
2023/03/29 11:58:22;;;;;;;10.43;6.95;;;;;;;7.58;83.52;97974.34;5071558;28;20047;-65
2023/03/29 12:00:51;;;;;;;13.98;6.72;;;;;;;7.57;83.86;97967.50;5069761;28;20050;-66
2023/03/29 12:03:23;;;;;;;9.48;6.45;;;;;;;7.57;84.26;97983.31;5069326;28;20047;-65
2023/03/29 12:06:23;;;;;;;9.20;6.30;;;;;;;7.58;84.23;97976.19;5068953;28;20506;-65
2023/03/29 12:09:01;;;;;;;7.32;5.40;;;;;;;7.63;84.78;97989.41;5049737;28;20598;-65
2023/03/29 12:11:36;;;;;;;8.07;5.75;;;;;;;7.62;84.73;97978.09;5069558;28;20109;-64